sensor_id;sensor_type;location;lat;lon;timestamp;P1;durP1;ratioP1;P2;durP2;ratioP2
19231;SDS011;9750;48.730;10.294;2023-06-10T00:01:24;7.60;;;7.00;;
19231;SDS011;9750;48.730;10.294;2023-06-10T00:03:52;7.97;;;7.30;;
19231;SDS011;9750;48.730;10.294;2023-06-10T00:06:20;7.43;;;6.83;;
19231;SDS011;9750;48.730;10.294;2023-06-10T00:08:49;7.97;;;7.27;;
19231;SDS011;9750;48.730;10.294;2023-06-10T00:11:16;7.83;;;7.13;;
19231;SDS011;9750;48.730;10.294;2023-06-10T00:13:44;7.90;;;7.07;;
19231;SDS011;9750;48.730;10.294;2023-06-10T00:16:11;7.53;;;6.87;;
19231;SDS011;9750;48.730;10.294;2023-06-10T00:18:40;7.60;;;7.00;;
19231;SDS011;9750;48.730;10.294;2023-06-10T00:21:08;8.30;;;7.60;;
19231;SDS011;9750;48.730;10.294;2023-06-10T00:23:38;7.53;;;6.90;;
19231;SDS011;9750;48.730;10.294;2023-06-10T00:26:06;7.03;;;6.50;;
19231;SDS011;9750;48.730;10.294;2023-06-10T00:28:33;7.73;;;7.13;;
19231;SDS011;9750;48.730;10.294;2023-06-10T00:31:01;7.70;;;7.00;;
19231;SDS011;9750;48.730;10.294;2023-06-10T00:33:29;7.23;;;6.63;;
19231;SDS011;9750;48.730;10.294;2023-06-10T00:35:58;7.33;;;6.83;;
19231;SDS011;9750;48.730;10.294;2023-06-10T00:38:25;7.70;;;7.10;;
19231;SDS011;9750;48.730;10.294;2023-06-10T00:40:52;7.47;;;6.87;;
19231;SDS011;9750;48.730;10.294;2023-06-10T00:43:20;6.93;;;6.23;;
19231;SDS011;9750;48.730;10.294;2023-06-10T00:45:47;7.40;;;6.20;;
19231;SDS011;9750;48.730;10.294;2023-06-10T00:50:46;8.07;;;7.27;;
19231;SDS011;9750;48.730;10.294;2023-06-10T00:53:16;6.47;;;5.97;;
19231;SDS011;9750;48.730;10.294;2023-06-10T00:55:44;7.33;;;6.73;;
19231;SDS011;9750;48.730;10.294;2023-06-10T01:01:01;7.13;;;6.53;;
19231;SDS011;9750;48.730;10.294;2023-06-10T01:03:29;7.63;;;7.03;;
19231;SDS011;9750;48.730;10.294;2023-06-10T01:05:58;7.10;;;6.50;;
19231;SDS011;9750;48.730;10.294;2023-06-10T01:08:32;7.13;;;6.43;;
19231;SDS011;9750;48.730;10.294;2023-06-10T01:11:07;7.30;;;6.60;;
19231;SDS011;9750;48.730;10.294;2023-06-10T01:13:40;6.90;;;6.30;;
19231;SDS011;9750;48.730;10.294;2023-06-10T01:16:08;7.47;;;6.60;;
19231;SDS011;9750;48.730;10.294;2023-06-10T01:18:36;6.80;;;6.10;;
19231;SDS011;9750;48.730;10.294;2023-06-10T01:21:04;6.97;;;6.37;;
19231;SDS011;9750;48.730;10.294;2023-06-10T01:23:34;7.13;;;6.43;;
19231;SDS011;9750;48.730;10.294;2023-06-10T01:26:02;7.00;;;6.33;;
19231;SDS011;9750;48.730;10.294;2023-06-10T01:28:34;6.90;;;6.30;;
19231;SDS011;9750;48.730;10.294;2023-06-10T01:31:09;6.70;;;6.20;;
19231;SDS011;9750;48.730;10.294;2023-06-10T01:33:41;6.37;;;5.87;;
19231;SDS011;9750;48.730;10.294;2023-06-10T01:36:12;6.87;;;6.30;;
19231;SDS011;9750;48.730;10.294;2023-06-10T01:38:44;6.77;;;6.13;;
19231;SDS011;9750;48.730;10.294;2023-06-10T01:41:13;6.90;;;6.30;;
19231;SDS011;9750;48.730;10.294;2023-06-10T01:43:42;6.43;;;5.90;;
19231;SDS011;9750;48.730;10.294;2023-06-10T01:46:10;7.10;;;6.43;;
19231;SDS011;9750;48.730;10.294;2023-06-10T01:48:37;6.53;;;6.03;;
19231;SDS011;9750;48.730;10.294;2023-06-10T01:51:05;6.77;;;6.17;;
19231;SDS011;9750;48.730;10.294;2023-06-10T01:53:32;6.80;;;6.20;;
19231;SDS011;9750;48.730;10.294;2023-06-10T01:56:01;6.47;;;5.97;;
19231;SDS011;9750;48.730;10.294;2023-06-10T01:58:29;7.20;;;6.60;;
19231;SDS011;9750;48.730;10.294;2023-06-10T02:00:56;7.20;;;6.60;;
19231;SDS011;9750;48.730;10.294;2023-06-10T02:03:23;7.70;;;6.97;;
19231;SDS011;9750;48.730;10.294;2023-06-10T02:05:50;6.73;;;6.13;;
19231;SDS011;9750;48.730;10.294;2023-06-10T02:08:18;7.93;;;6.60;;
19231;SDS011;9750;48.730;10.294;2023-06-10T02:10:45;6.77;;;6.13;;
19231;SDS011;9750;48.730;10.294;2023-06-10T02:13:14;7.73;;;7.03;;
19231;SDS011;9750;48.730;10.294;2023-06-10T02:15:41;7.17;;;6.57;;
19231;SDS011;9750;48.730;10.294;2023-06-10T02:18:08;7.13;;;6.43;;
19231;SDS011;9750;48.730;10.294;2023-06-10T02:20:37;11.13;;;8.73;;
19231;SDS011;9750;48.730;10.294;2023-06-10T02:23:04;7.00;;;6.40;;
19231;SDS011;9750;48.730;10.294;2023-06-10T02:25:31;6.70;;;6.10;;
19231;SDS011;9750;48.730;10.294;2023-06-10T02:27:59;7.57;;;6.87;;
19231;SDS011;9750;48.730;10.294;2023-06-10T02:30:30;7.90;;;7.17;;
19231;SDS011;9750;48.730;10.294;2023-06-10T02:32:57;6.80;;;6.20;;
19231;SDS011;9750;48.730;10.294;2023-06-10T02:35:24;7.37;;;6.63;;
19231;SDS011;9750;48.730;10.294;2023-06-10T02:37:51;7.60;;;6.90;;
19231;SDS011;9750;48.730;10.294;2023-06-10T02:40:19;7.03;;;6.33;;
19231;SDS011;9750;48.730;10.294;2023-06-10T02:42:46;7.33;;;6.73;;
19231;SDS011;9750;48.730;10.294;2023-06-10T02:45:13;7.57;;;6.83;;
19231;SDS011;9750;48.730;10.294;2023-06-10T02:47:43;6.90;;;6.30;;
19231;SDS011;9750;48.730;10.294;2023-06-10T02:50:10;7.27;;;6.40;;
19231;SDS011;9750;48.730;10.294;2023-06-10T02:52:37;7.40;;;6.80;;
19231;SDS011;9750;48.730;10.294;2023-06-10T02:55:05;7.90;;;7.20;;
19231;SDS011;9750;48.730;10.294;2023-06-10T02:57:32;7.73;;;7.03;;
19231;SDS011;9750;48.730;10.294;2023-06-10T03:00:00;7.17;;;6.57;;
19231;SDS011;9750;48.730;10.294;2023-06-10T03:02:29;7.07;;;6.47;;
19231;SDS011;9750;48.730;10.294;2023-06-10T03:04:58;8.20;;;7.40;;
19231;SDS011;9750;48.730;10.294;2023-06-10T03:07:25;7.70;;;6.90;;
19231;SDS011;9750;48.730;10.294;2023-06-10T03:09:52;8.03;;;7.33;;
19231;SDS011;9750;48.730;10.294;2023-06-10T03:12:19;7.37;;;6.60;;
19231;SDS011;9750;48.730;10.294;2023-06-10T03:14:47;8.17;;;7.47;;
19231;SDS011;9750;48.730;10.294;2023-06-10T03:17:14;7.53;;;6.93;;
19231;SDS011;9750;48.730;10.294;2023-06-10T03:19:41;7.93;;;7.20;;
19231;SDS011;9750;48.730;10.294;2023-06-10T03:22:11;7.40;;;6.80;;
19231;SDS011;9750;48.730;10.294;2023-06-10T03:24:38;7.97;;;7.27;;
19231;SDS011;9750;48.730;10.294;2023-06-10T03:27:06;7.47;;;6.77;;
19231;SDS011;9750;48.730;10.294;2023-06-10T03:29:34;8.37;;;7.60;;
19231;SDS011;9750;48.730;10.294;2023-06-10T03:32:01;8.37;;;7.67;;
19231;SDS011;9750;48.730;10.294;2023-06-10T03:34:29;8.13;;;7.37;;
19231;SDS011;9750;48.730;10.294;2023-06-10T03:36:56;8.77;;;7.90;;
19231;SDS011;9750;48.730;10.294;2023-06-10T03:39:25;8.93;;;8.13;;
19231;SDS011;9750;48.730;10.294;2023-06-10T03:41:54;7.97;;;6.80;;
19231;SDS011;9750;48.730;10.294;2023-06-10T03:44:21;7.57;;;6.87;;
19231;SDS011;9750;48.730;10.294;2023-06-10T03:46:49;7.60;;;6.90;;
19231;SDS011;9750;48.730;10.294;2023-06-10T03:49:17;8.37;;;7.67;;
19231;SDS011;9750;48.730;10.294;2023-06-10T03:51:44;7.73;;;7.07;;
19231;SDS011;9750;48.730;10.294;2023-06-10T03:54:11;7.73;;;7.03;;
19231;SDS011;9750;48.730;10.294;2023-06-10T03:56:40;8.10;;;7.30;;
19231;SDS011;9750;48.730;10.294;2023-06-10T03:59:07;7.93;;;7.13;;
19231;SDS011;9750;48.730;10.294;2023-06-10T04:01:34;7.20;;;6.60;;
19231;SDS011;9750;48.730;10.294;2023-06-10T04:04:02;8.20;;;7.50;;
19231;SDS011;9750;48.730;10.294;2023-06-10T04:06:30;7.83;;;7.13;;
19231;SDS011;9750;48.730;10.294;2023-06-10T04:08:57;8.00;;;7.20;;
19231;SDS011;9750;48.730;10.294;2023-06-10T04:11:24;8.40;;;7.70;;
19231;SDS011;9750;48.730;10.294;2023-06-10T04:13:53;7.50;;;6.80;;
19231;SDS011;9750;48.730;10.294;2023-06-10T04:16:20;7.87;;;7.17;;
19231;SDS011;9750;48.730;10.294;2023-06-10T04:18:47;8.13;;;7.43;;
19231;SDS011;9750;48.730;10.294;2023-06-10T04:21:15;7.17;;;6.57;;
19231;SDS011;9750;48.730;10.294;2023-06-10T04:23:42;8.03;;;7.30;;
19231;SDS011;9750;48.730;10.294;2023-06-10T04:26:09;7.97;;;7.27;;
19231;SDS011;9750;48.730;10.294;2023-06-10T04:28:37;7.87;;;7.17;;
19231;SDS011;9750;48.730;10.294;2023-06-10T04:31:06;8.13;;;7.33;;
19231;SDS011;9750;48.730;10.294;2023-06-10T04:33:33;12.50;;;11.20;;
19231;SDS011;9750;48.730;10.294;2023-06-10T04:36:00;9.23;;;8.30;;
19231;SDS011;9750;48.730;10.294;2023-06-10T04:38:28;8.27;;;7.53;;
19231;SDS011;9750;48.730;10.294;2023-06-10T04:40:56;7.90;;;7.20;;
19231;SDS011;9750;48.730;10.294;2023-06-10T04:43:23;8.27;;;7.57;;
19231;SDS011;9750;48.730;10.294;2023-06-10T04:45:50;8.23;;;7.43;;
19231;SDS011;9750;48.730;10.294;2023-06-10T04:48:19;9.83;;;8.83;;
19231;SDS011;9750;48.730;10.294;2023-06-10T04:50:47;8.23;;;7.53;;
19231;SDS011;9750;48.730;10.294;2023-06-10T04:53:15;8.60;;;7.80;;
19231;SDS011;9750;48.730;10.294;2023-06-10T04:55:42;8.67;;;7.87;;
19231;SDS011;9750;48.730;10.294;2023-06-10T04:58:11;8.77;;;7.97;;
19231;SDS011;9750;48.730;10.294;2023-06-10T05:00:38;8.47;;;7.77;;
19231;SDS011;9750;48.730;10.294;2023-06-10T05:03:06;7.67;;;6.97;;
19231;SDS011;9750;48.730;10.294;2023-06-10T05:05:34;9.27;;;8.33;;
19231;SDS011;9750;48.730;10.294;2023-06-10T05:08:02;8.20;;;7.50;;
19231;SDS011;9750;48.730;10.294;2023-06-10T05:10:29;8.67;;;7.57;;
19231;SDS011;9750;48.730;10.294;2023-06-10T05:12:59;7.90;;;7.10;;
19231;SDS011;9750;48.730;10.294;2023-06-10T05:15:26;7.60;;;6.90;;
19231;SDS011;9750;48.730;10.294;2023-06-10T05:17:55;8.33;;;7.50;;
19231;SDS011;9750;48.730;10.294;2023-06-10T05:20:23;9.00;;;8.10;;
19231;SDS011;9750;48.730;10.294;2023-06-10T05:22:53;8.53;;;7.73;;
19231;SDS011;9750;48.730;10.294;2023-06-10T05:25:20;9.97;;;9.10;;
19231;SDS011;9750;48.730;10.294;2023-06-10T05:27:47;9.40;;;8.50;;
19231;SDS011;9750;48.730;10.294;2023-06-10T05:30:15;10.83;;;8.60;;
19231;SDS011;9750;48.730;10.294;2023-06-10T05:32:43;8.20;;;7.37;;
19231;SDS011;9750;48.730;10.294;2023-06-10T05:35:11;8.90;;;7.33;;
19231;SDS011;9750;48.730;10.294;2023-06-10T05:37:38;9.73;;;7.70;;
19231;SDS011;9750;48.730;10.294;2023-06-10T05:40:07;9.53;;;8.63;;
19231;SDS011;9750;48.730;10.294;2023-06-10T05:42:35;9.23;;;8.43;;
19231;SDS011;9750;48.730;10.294;2023-06-10T05:45:03;9.50;;;8.60;;
19231;SDS011;9750;48.730;10.294;2023-06-10T05:47:32;10.07;;;9.03;;
19231;SDS011;9750;48.730;10.294;2023-06-10T05:49:59;9.07;;;8.27;;
19231;SDS011;9750;48.730;10.294;2023-06-10T05:52:26;9.60;;;8.70;;
19231;SDS011;9750;48.730;10.294;2023-06-10T05:54:53;9.00;;;8.20;;
19231;SDS011;9750;48.730;10.294;2023-06-10T05:57:22;9.20;;;8.30;;
19231;SDS011;9750;48.730;10.294;2023-06-10T05:59:49;9.63;;;8.73;;
19231;SDS011;9750;48.730;10.294;2023-06-10T06:02:17;9.83;;;8.93;;
19231;SDS011;9750;48.730;10.294;2023-06-10T06:04:44;9.80;;;8.90;;
19231;SDS011;9750;48.730;10.294;2023-06-10T06:07:11;9.40;;;8.50;;
19231;SDS011;9750;48.730;10.294;2023-06-10T06:09:39;9.53;;;8.73;;
19231;SDS011;9750;48.730;10.294;2023-06-10T06:12:06;9.07;;;8.20;;
19231;SDS011;9750;48.730;10.294;2023-06-10T06:14:38;9.27;;;8.47;;
19231;SDS011;9750;48.730;10.294;2023-06-10T06:17:05;9.70;;;8.70;;
19231;SDS011;9750;48.730;10.294;2023-06-10T06:19:32;8.83;;;8.03;;
19231;SDS011;9750;48.730;10.294;2023-06-10T06:22:00;9.43;;;8.43;;
19231;SDS011;9750;48.730;10.294;2023-06-10T06:24:27;9.00;;;8.17;;
19231;SDS011;9750;48.730;10.294;2023-06-10T06:26:54;9.40;;;8.40;;
19231;SDS011;9750;48.730;10.294;2023-06-10T06:29:22;9.37;;;8.40;;
19231;SDS011;9750;48.730;10.294;2023-06-10T06:31:50;10.37;;;8.43;;
19231;SDS011;9750;48.730;10.294;2023-06-10T06:34:18;8.13;;;7.43;;
19231;SDS011;9750;48.730;10.294;2023-06-10T06:36:45;8.00;;;7.30;;
19231;SDS011;9750;48.730;10.294;2023-06-10T06:39:12;8.57;;;7.88;;
19231;SDS011;9750;48.730;10.294;2023-06-10T06:41:39;8.60;;;7.85;;
19231;SDS011;9750;48.730;10.294;2023-06-10T06:44:07;8.18;;;7.47;;
19231;SDS011;9750;48.730;10.294;2023-06-10T06:46:34;7.73;;;7.13;;
19231;SDS011;9750;48.730;10.294;2023-06-10T06:49:03;8.18;;;7.35;;
19231;SDS011;9750;48.730;10.294;2023-06-10T06:51:30;8.32;;;7.53;;
19231;SDS011;9750;48.730;10.294;2023-06-10T06:53:57;7.40;;;6.70;;
19231;SDS011;9750;48.730;10.294;2023-06-10T06:56:24;7.97;;;7.22;;
19231;SDS011;9750;48.730;10.294;2023-06-10T06:58:53;7.50;;;6.80;;
19231;SDS011;9750;48.730;10.294;2023-06-10T07:01:20;7.53;;;6.93;;
19231;SDS011;9750;48.730;10.294;2023-06-10T07:03:47;7.88;;;7.20;;
19231;SDS011;9750;48.730;10.294;2023-06-10T07:06:16;7.70;;;6.93;;
19231;SDS011;9750;48.730;10.294;2023-06-10T07:08:43;8.10;;;7.43;;
19231;SDS011;9750;48.730;10.294;2023-06-10T07:11:11;8.05;;;7.35;;
19231;SDS011;9750;48.730;10.294;2023-06-10T07:13:38;7.95;;;7.22;;
19231;SDS011;9750;48.730;10.294;2023-06-10T07:16:05;8.75;;;7.95;;
19231;SDS011;9750;48.730;10.294;2023-06-10T07:18:32;8.23;;;7.53;;
19231;SDS011;9750;48.730;10.294;2023-06-10T07:21:00;7.95;;;7.25;;
19231;SDS011;9750;48.730;10.294;2023-06-10T07:23:28;8.80;;;8.07;;
19231;SDS011;9750;48.730;10.294;2023-06-10T07:25:56;8.20;;;7.50;;
19231;SDS011;9750;48.730;10.294;2023-06-10T07:31:45;9.90;;;8.90;;
19231;SDS011;9750;48.730;10.294;2023-06-10T07:34:12;6.90;;;6.30;;
19231;SDS011;9750;48.730;10.294;2023-06-10T07:36:41;6.80;;;6.18;;
19231;SDS011;9750;48.730;10.294;2023-06-10T07:39:09;6.80;;;6.30;;
19231;SDS011;9750;48.730;10.294;2023-06-10T07:41:37;6.88;;;6.28;;
19231;SDS011;9750;48.730;10.294;2023-06-10T07:44:04;7.50;;;6.80;;
19231;SDS011;9750;48.730;10.294;2023-06-10T07:46:31;8.05;;;6.88;;
19231;SDS011;9750;48.730;10.294;2023-06-10T07:48:58;7.88;;;7.18;;
19231;SDS011;9750;48.730;10.294;2023-06-10T07:51:26;8.18;;;7.50;;
19231;SDS011;9750;48.730;10.294;2023-06-10T07:53:53;7.55;;;6.82;;
19231;SDS011;9750;48.730;10.294;2023-06-10T07:56:22;6.80;;;6.20;;
19231;SDS011;9750;48.730;10.294;2023-06-10T07:58:50;7.10;;;6.40;;
19231;SDS011;9750;48.730;10.294;2023-06-10T08:01:17;7.47;;;6.78;;
19231;SDS011;9750;48.730;10.294;2023-06-10T08:03:45;7.15;;;6.57;;
19231;SDS011;9750;48.730;10.294;2023-06-10T08:06:12;7.50;;;6.90;;
19231;SDS011;9750;48.730;10.294;2023-06-10T08:08:39;8.55;;;7.65;;
19231;SDS011;9750;48.730;10.294;2023-06-10T08:11:08;7.28;;;6.68;;
19231;SDS011;9750;48.730;10.294;2023-06-10T08:13:38;7.88;;;7.00;;
19231;SDS011;9750;48.730;10.294;2023-06-10T08:16:06;6.70;;;6.10;;
19231;SDS011;9750;48.730;10.294;2023-06-10T08:18:33;7.43;;;6.72;;
19231;SDS011;9750;48.730;10.294;2023-06-10T08:21:00;7.13;;;6.53;;
19231;SDS011;9750;48.730;10.294;2023-06-10T08:23:28;7.00;;;6.40;;
19231;SDS011;9750;48.730;10.294;2023-06-10T08:25:55;7.22;;;6.63;;
19231;SDS011;9750;48.730;10.294;2023-06-10T08:28:23;7.00;;;6.40;;
19231;SDS011;9750;48.730;10.294;2023-06-10T08:30:51;8.02;;;7.22;;
19231;SDS011;9750;48.730;10.294;2023-06-10T08:33:19;7.60;;;6.97;;
19231;SDS011;9750;48.730;10.294;2023-06-10T08:35:46;7.60;;;6.80;;
19231;SDS011;9750;48.730;10.294;2023-06-10T08:38:13;7.53;;;6.93;;
19231;SDS011;9750;48.730;10.294;2023-06-10T08:40:41;6.90;;;6.20;;
19231;SDS011;9750;48.730;10.294;2023-06-10T08:43:10;6.75;;;6.25;;
19231;SDS011;9750;48.730;10.294;2023-06-10T08:45:43;6.85;;;6.25;;
19231;SDS011;9750;48.730;10.294;2023-06-10T08:48:15;7.50;;;6.80;;
19231;SDS011;9750;48.730;10.294;2023-06-10T08:50:45;7.68;;;6.95;;
19231;SDS011;9750;48.730;10.294;2023-06-10T08:53:14;7.53;;;6.93;;
19231;SDS011;9750;48.730;10.294;2023-06-10T08:55:46;7.43;;;6.82;;
19231;SDS011;9750;48.730;10.294;2023-06-10T08:58:17;6.63;;;6.13;;
19231;SDS011;9750;48.730;10.294;2023-06-10T09:00:45;7.38;;;6.70;;
19231;SDS011;9750;48.730;10.294;2023-06-10T09:03:13;7.35;;;6.20;;
19231;SDS011;9750;48.730;10.294;2023-06-10T09:05:41;7.50;;;6.90;;
19231;SDS011;9750;48.730;10.294;2023-06-10T09:08:09;7.13;;;6.53;;
19231;SDS011;9750;48.730;10.294;2023-06-10T09:10:37;7.10;;;6.40;;
19231;SDS011;9750;48.730;10.294;2023-06-10T09:13:05;6.85;;;6.07;;
19231;SDS011;9750;48.730;10.294;2023-06-10T09:15:32;6.95;;;6.25;;
19231;SDS011;9750;48.730;10.294;2023-06-10T09:18:00;7.03;;;6.43;;
19231;SDS011;9750;48.730;10.294;2023-06-10T09:20:27;6.97;;;6.38;;
19231;SDS011;9750;48.730;10.294;2023-06-10T09:22:56;6.70;;;6.18;;
19231;SDS011;9750;48.730;10.294;2023-06-10T09:25:33;6.45;;;5.95;;
19231;SDS011;9750;48.730;10.294;2023-06-10T09:28:02;6.78;;;6.28;;
19231;SDS011;9750;48.730;10.294;2023-06-10T09:30:30;6.57;;;6.05;;
19231;SDS011;9750;48.730;10.294;2023-06-10T09:32:59;6.80;;;6.20;;
19231;SDS011;9750;48.730;10.294;2023-06-10T09:35:28;6.25;;;5.68;;
19231;SDS011;9750;48.730;10.294;2023-06-10T09:37:58;7.45;;;6.75;;
19231;SDS011;9750;48.730;10.294;2023-06-10T09:40:26;7.32;;;6.60;;
19231;SDS011;9750;48.730;10.294;2023-06-10T09:42:54;7.28;;;6.38;;
19231;SDS011;9750;48.730;10.294;2023-06-10T09:45:23;6.90;;;6.28;;
19231;SDS011;9750;48.730;10.294;2023-06-10T09:47:54;6.28;;;5.78;;
19231;SDS011;9750;48.730;10.294;2023-06-10T09:50:21;6.05;;;5.55;;
19231;SDS011;9750;48.730;10.294;2023-06-10T09:52:49;5.60;;;5.20;;
19231;SDS011;9750;48.730;10.294;2023-06-10T09:55:18;5.30;;;4.90;;
19231;SDS011;9750;48.730;10.294;2023-06-10T09:57:46;5.40;;;4.95;;
19231;SDS011;9750;48.730;10.294;2023-06-10T10:00:16;5.57;;;5.18;;
19231;SDS011;9750;48.730;10.294;2023-06-10T10:02:47;5.53;;;5.13;;
19231;SDS011;9750;48.730;10.294;2023-06-10T10:05:16;4.78;;;4.43;;
19231;SDS011;9750;48.730;10.294;2023-06-10T10:07:44;4.78;;;4.38;;
19231;SDS011;9750;48.730;10.294;2023-06-10T10:10:13;5.55;;;5.10;;
19231;SDS011;9750;48.730;10.294;2023-06-10T10:12:43;5.40;;;5.00;;
19231;SDS011;9750;48.730;10.294;2023-06-10T10:15:15;4.75;;;4.35;;
19231;SDS011;9750;48.730;10.294;2023-06-10T10:17:44;5.00;;;4.60;;
19231;SDS011;9750;48.730;10.294;2023-06-10T10:20:16;5.13;;;4.72;;
19231;SDS011;9750;48.730;10.294;2023-06-10T10:22:47;4.63;;;4.22;;
19231;SDS011;9750;48.730;10.294;2023-06-10T10:25:20;5.75;;;4.93;;
19231;SDS011;9750;48.730;10.294;2023-06-10T10:31:15;6.22;;;5.65;;
19231;SDS011;9750;48.730;10.294;2023-06-10T10:33:48;5.43;;;4.97;;
19231;SDS011;9750;48.730;10.294;2023-06-10T10:36:21;5.35;;;4.95;;
19231;SDS011;9750;48.730;10.294;2023-06-10T10:38:48;5.50;;;5.00;;
19231;SDS011;9750;48.730;10.294;2023-06-10T10:41:16;5.72;;;5.20;;
19231;SDS011;9750;48.730;10.294;2023-06-10T10:43:44;5.93;;;5.43;;
19231;SDS011;9750;48.730;10.294;2023-06-10T10:46:13;7.50;;;5.97;;
19231;SDS011;9750;48.730;10.294;2023-06-10T10:48:43;5.88;;;5.32;;
19231;SDS011;9750;48.730;10.294;2023-06-10T10:51:11;5.32;;;4.88;;
19231;SDS011;9750;48.730;10.294;2023-06-10T10:53:38;5.40;;;5.00;;
19231;SDS011;9750;48.730;10.294;2023-06-10T10:56:12;6.82;;;5.90;;
19231;SDS011;9750;48.730;10.294;2023-06-10T10:58:43;6.15;;;5.55;;
19231;SDS011;9750;48.730;10.294;2023-06-10T11:01:40;6.57;;;5.28;;
19231;SDS011;9750;48.730;10.294;2023-06-10T11:04:11;6.82;;;5.13;;
19231;SDS011;9750;48.730;10.294;2023-06-10T11:06:38;5.55;;;5.05;;
19231;SDS011;9750;48.730;10.294;2023-06-10T11:11:56;5.55;;;5.03;;
19231;SDS011;9750;48.730;10.294;2023-06-10T11:14:26;5.90;;;5.50;;
19231;SDS011;9750;48.730;10.294;2023-06-10T11:16:57;5.82;;;5.25;;
19231;SDS011;9750;48.730;10.294;2023-06-10T11:19:31;5.53;;;5.03;;
19231;SDS011;9750;48.730;10.294;2023-06-10T11:21:59;5.50;;;4.93;;
19231;SDS011;9750;48.730;10.294;2023-06-10T11:24:28;5.70;;;5.13;;
19231;SDS011;9750;48.730;10.294;2023-06-10T11:27:09;5.82;;;5.32;;
19231;SDS011;9750;48.730;10.294;2023-06-10T11:29:54;5.65;;;5.20;;
19231;SDS011;9750;48.730;10.294;2023-06-10T11:32:24;6.13;;;5.53;;
19231;SDS011;9750;48.730;10.294;2023-06-10T11:34:55;5.93;;;5.47;;
19231;SDS011;9750;48.730;10.294;2023-06-10T11:37:23;7.10;;;6.50;;
19231;SDS011;9750;48.730;10.294;2023-06-10T11:39:51;6.18;;;5.68;;
19231;SDS011;9750;48.730;10.294;2023-06-10T11:42:19;6.20;;;5.68;;
19231;SDS011;9750;48.730;10.294;2023-06-10T11:44:48;6.15;;;5.55;;
19231;SDS011;9750;48.730;10.294;2023-06-10T11:47:16;5.95;;;5.45;;
19231;SDS011;9750;48.730;10.294;2023-06-10T11:49:45;6.47;;;5.90;;
19231;SDS011;9750;48.730;10.294;2023-06-10T11:52:25;5.60;;;5.07;;
19231;SDS011;9750;48.730;10.294;2023-06-10T11:54:53;6.10;;;5.60;;
19231;SDS011;9750;48.730;10.294;2023-06-10T11:57:21;5.68;;;5.20;;
19231;SDS011;9750;48.730;10.294;2023-06-10T11:59:48;5.88;;;4.68;;
19231;SDS011;9750;48.730;10.294;2023-06-10T12:02:16;5.80;;;5.30;;
19231;SDS011;9750;48.730;10.294;2023-06-10T12:04:45;5.32;;;4.93;;
19231;SDS011;9750;48.730;10.294;2023-06-10T12:07:17;5.70;;;5.20;;
19231;SDS011;9750;48.730;10.294;2023-06-10T12:09:46;5.20;;;4.80;;
19231;SDS011;9750;48.730;10.294;2023-06-10T12:12:24;7.05;;;5.60;;
19231;SDS011;9750;48.730;10.294;2023-06-10T12:14:52;5.40;;;4.90;;
19231;SDS011;9750;48.730;10.294;2023-06-10T12:17:21;6.50;;;5.90;;
19231;SDS011;9750;48.730;10.294;2023-06-10T12:19:51;5.82;;;5.32;;
19231;SDS011;9750;48.730;10.294;2023-06-10T12:22:18;5.30;;;4.90;;
19231;SDS011;9750;48.730;10.294;2023-06-10T12:24:57;5.15;;;4.65;;
19231;SDS011;9750;48.730;10.294;2023-06-10T12:27:26;6.70;;;4.97;;
19231;SDS011;9750;48.730;10.294;2023-06-10T12:29:55;5.88;;;5.38;;
19231;SDS011;9750;48.730;10.294;2023-06-10T12:32:34;5.47;;;4.97;;
19231;SDS011;9750;48.730;10.294;2023-06-10T12:35:04;5.38;;;4.88;;
19231;SDS011;9750;48.730;10.294;2023-06-10T12:37:32;5.38;;;4.97;;
19231;SDS011;9750;48.730;10.294;2023-06-10T12:40:00;5.55;;;5.15;;
19231;SDS011;9750;48.730;10.294;2023-06-10T12:42:28;5.40;;;5.00;;
19231;SDS011;9750;48.730;10.294;2023-06-10T12:44:56;4.78;;;4.47;;
19231;SDS011;9750;48.730;10.294;2023-06-10T12:47:29;6.47;;;5.05;;
19231;SDS011;9750;48.730;10.294;2023-06-10T12:50:00;5.80;;;5.30;;
19231;SDS011;9750;48.730;10.294;2023-06-10T12:52:30;5.35;;;4.95;;
19231;SDS011;9750;48.730;10.294;2023-06-10T12:54:58;5.30;;;4.80;;
19231;SDS011;9750;48.730;10.294;2023-06-10T13:00:54;6.32;;;5.30;;
19231;SDS011;9750;48.730;10.294;2023-06-10T13:03:22;5.22;;;4.82;;
19231;SDS011;9750;48.730;10.294;2023-06-10T13:05:49;5.30;;;4.90;;
19231;SDS011;9750;48.730;10.294;2023-06-10T13:08:17;5.72;;;5.32;;
19231;SDS011;9750;48.730;10.294;2023-06-10T13:10:45;5.82;;;5.32;;
19231;SDS011;9750;48.730;10.294;2023-06-10T13:13:14;5.80;;;5.40;;
19231;SDS011;9750;48.730;10.294;2023-06-10T13:15:41;6.15;;;5.55;;
19231;SDS011;9750;48.730;10.294;2023-06-10T13:18:08;6.00;;;5.47;;
19231;SDS011;9750;48.730;10.294;2023-06-10T13:20:36;5.43;;;5.03;;
19231;SDS011;9750;48.730;10.294;2023-06-10T13:23:03;6.30;;;5.78;;
19231;SDS011;9750;48.730;10.294;2023-06-10T13:25:32;6.20;;;5.70;;
19231;SDS011;9750;48.730;10.294;2023-06-10T13:27:59;6.75;;;6.15;;
19231;SDS011;9750;48.730;10.294;2023-06-10T13:30:26;6.18;;;5.57;;
19231;SDS011;9750;48.730;10.294;2023-06-10T13:32:53;7.18;;;6.57;;
19231;SDS011;9750;48.730;10.294;2023-06-10T13:35:21;5.85;;;5.22;;
19231;SDS011;9750;48.730;10.294;2023-06-10T13:37:48;5.35;;;4.95;;
19231;SDS011;9750;48.730;10.294;2023-06-10T13:40:15;5.90;;;5.40;;
19231;SDS011;9750;48.730;10.294;2023-06-10T13:42:46;6.53;;;5.93;;
19231;SDS011;9750;48.730;10.294;2023-06-10T13:45:16;6.32;;;5.82;;
19231;SDS011;9750;48.730;10.294;2023-06-10T13:47:43;6.28;;;5.78;;
19231;SDS011;9750;48.730;10.294;2023-06-10T13:50:10;6.07;;;5.60;;
19231;SDS011;9750;48.730;10.294;2023-06-10T13:52:38;5.97;;;5.47;;
19231;SDS011;9750;48.730;10.294;2023-06-10T13:55:05;6.05;;;5.60;;
19231;SDS011;9750;48.730;10.294;2023-06-10T13:57:33;6.53;;;6.03;;
19231;SDS011;9750;48.730;10.294;2023-06-10T14:00:02;6.68;;;5.45;;
19231;SDS011;9750;48.730;10.294;2023-06-10T14:02:30;5.95;;;5.53;;
19231;SDS011;9750;48.730;10.294;2023-06-10T14:04:57;6.10;;;5.60;;
19231;SDS011;9750;48.730;10.294;2023-06-10T14:07:25;6.10;;;5.50;;
19231;SDS011;9750;48.730;10.294;2023-06-10T14:09:52;7.25;;;5.78;;
19231;SDS011;9750;48.730;10.294;2023-06-10T14:12:19;5.72;;;5.22;;
19231;SDS011;9750;48.730;10.294;2023-06-10T14:14:47;6.15;;;5.63;;
19231;SDS011;9750;48.730;10.294;2023-06-10T14:20:38;6.53;;;5.88;;
19231;SDS011;9750;48.730;10.294;2023-06-10T14:23:05;6.28;;;5.72;;
19231;SDS011;9750;48.730;10.294;2023-06-10T14:25:32;7.90;;;5.90;;
19231;SDS011;9750;48.730;10.294;2023-06-10T14:28:00;5.90;;;5.50;;
19231;SDS011;9750;48.730;10.294;2023-06-10T14:30:27;5.53;;;5.13;;
19231;SDS011;9750;48.730;10.294;2023-06-10T14:32:54;7.43;;;5.25;;
19231;SDS011;9750;48.730;10.294;2023-06-10T14:35:21;5.53;;;5.13;;
19231;SDS011;9750;48.730;10.294;2023-06-10T14:37:50;6.18;;;5.68;;
19231;SDS011;9750;48.730;10.294;2023-06-10T14:40:17;7.82;;;5.78;;
19231;SDS011;9750;48.730;10.294;2023-06-10T14:42:46;5.93;;;5.35;;
19231;SDS011;9750;48.730;10.294;2023-06-10T14:45:13;6.18;;;5.68;;
19231;SDS011;9750;48.730;10.294;2023-06-10T14:47:41;6.38;;;5.88;;
19231;SDS011;9750;48.730;10.294;2023-06-10T14:50:08;6.10;;;5.53;;
19231;SDS011;9750;48.730;10.294;2023-06-10T14:52:36;6.97;;;6.32;;
19231;SDS011;9750;48.730;10.294;2023-06-10T14:55:05;6.03;;;5.53;;
19231;SDS011;9750;48.730;10.294;2023-06-10T14:57:33;6.30;;;5.80;;
19231;SDS011;9750;48.730;10.294;2023-06-10T15:00:00;6.20;;;5.72;;
19231;SDS011;9750;48.730;10.294;2023-06-10T15:02:27;6.60;;;6.00;;
19231;SDS011;9750;48.730;10.294;2023-06-10T15:04:54;6.78;;;6.28;;
19231;SDS011;9750;48.730;10.294;2023-06-10T15:07:22;5.93;;;5.35;;
19231;SDS011;9750;48.730;10.294;2023-06-10T15:09:49;5.95;;;5.45;;
19231;SDS011;9750;48.730;10.294;2023-06-10T15:12:18;6.88;;;5.30;;
19231;SDS011;9750;48.730;10.294;2023-06-10T15:14:45;5.28;;;4.88;;
19231;SDS011;9750;48.730;10.294;2023-06-10T15:17:13;5.82;;;5.22;;